Terminal Aerodrome Forecast
Issued by NWS Flagstaff, AZ

Home | Current Version | Previous Version | Text Only | Print | Product List | Glossary On
Versions: 1 2 3 4 5 6 7 8 9 10 11 12 13 14 15
000
FTUS45 KFGZ 052345
TAFFLG
TAF
KFLG 052345Z 0600/0624 VRB06KT P6SM VCSH SCT050 BKN110
      TEMPO 0601/0604 SHRA BKN050
     FM060400 24008KT P6SM SCT060 BKN100
     FM061800 23011KT P6SM SCT070 BKN110 PROB30 0619/0623 TSRA
      BKN060CB=

USA.gov is the U.S. government's official web portal to all federal, state and local government web resources and services.